sensor_id;sensor_type;location;lat;lon;timestamp;temperature;humidity
6954;DHT22;3516;47.980;8.808;2023-04-06T12:02:06;-2.60;99.90
6954;DHT22;3516;47.980;8.808;2023-04-06T12:04:33;10.50;29.40
6954;DHT22;3516;47.980;8.808;2023-04-06T12:07:00;10.40;22.80
6954;DHT22;3516;47.980;8.808;2023-04-06T12:09:26;10.40;22.70
6954;DHT22;3516;47.980;8.808;2023-04-06T12:11:53;10.40;22.30
6954;DHT22;3516;47.980;8.808;2023-04-06T12:14:21;10.50;21.80
6954;DHT22;3516;47.980;8.808;2023-04-06T12:16:49;10.60;22.30
6954;DHT22;3516;47.980;8.808;2023-04-06T12:19:16;10.60;21.80
6954;DHT22;3516;47.980;8.808;2023-04-06T12:21:43;10.70;21.90
6954;DHT22;3516;47.980;8.808;2023-04-06T12:24:10;10.70;21.70
6954;DHT22;3516;47.980;8.808;2023-04-06T12:26:36;10.70;21.30
6954;DHT22;3516;47.980;8.808;2023-04-06T12:29:03;10.80;22.00
6954;DHT22;3516;47.980;8.808;2023-04-06T12:31:32;10.90;22.00
6954;DHT22;3516;47.980;8.808;2023-04-06T12:34:00;11.10;21.60
6954;DHT22;3516;47.980;8.808;2023-04-06T12:36:28;11.20;20.10
6954;DHT22;3516;47.980;8.808;2023-04-06T12:38:56;11.20;19.10
6954;DHT22;3516;47.980;8.808;2023-04-06T12:41:23;11.10;19.10
6954;DHT22;3516;47.980;8.808;2023-04-06T12:43:50;11.00;19.00
6954;DHT22;3516;47.980;8.808;2023-04-06T12:46:17;11.10;19.50
6954;DHT22;3516;47.980;8.808;2023-04-06T12:48:43;11.10;20.20
6954;DHT22;3516;47.980;8.808;2023-04-06T12:51:12;11.10;21.00
6954;DHT22;3516;47.980;8.808;2023-04-06T12:53:38;11.10;20.80
6954;DHT22;3516;47.980;8.808;2023-04-06T12:56:12;11.10;20.70
6954;DHT22;3516;47.980;8.808;2023-04-06T12:58:39;11.20;20.80
6954;DHT22;3516;47.980;8.808;2023-04-06T13:01:07;11.30;20.80
6954;DHT22;3516;47.980;8.808;2023-04-06T13:03:34;11.40;21.30
6954;DHT22;3516;47.980;8.808;2023-04-06T13:06:01;11.60;20.90
6954;DHT22;3516;47.980;8.808;2023-04-06T13:08:31;11.80;20.90
6954;DHT22;3516;47.980;8.808;2023-04-06T13:10:58;11.90;20.40
6954;DHT22;3516;47.980;8.808;2023-04-06T13:13:25;12.10;20.30
6954;DHT22;3516;47.980;8.808;2023-04-06T13:15:53;12.20;20.70
6954;DHT22;3516;47.980;8.808;2023-04-06T13:18:20;12.30;19.60
6954;DHT22;3516;47.980;8.808;2023-04-06T13:20:48;12.40;19.30
6954;DHT22;3516;47.980;8.808;2023-04-06T13:23:15;12.50;21.50
6954;DHT22;3516;47.980;8.808;2023-04-06T13:25:43;12.50;19.00
6954;DHT22;3516;47.980;8.808;2023-04-06T13:28:10;12.50;19.00
6954;DHT22;3516;47.980;8.808;2023-04-06T13:30:37;12.40;18.00
6954;DHT22;3516;47.980;8.808;2023-04-06T13:33:04;12.30;17.70
6954;DHT22;3516;47.980;8.808;2023-04-06T13:35:31;12.00;17.40
6954;DHT22;3516;47.980;8.808;2023-04-06T13:37:59;11.90;18.10
6954;DHT22;3516;47.980;8.808;2023-04-06T13:40:25;11.90;18.60
6954;DHT22;3516;47.980;8.808;2023-04-06T13:42:53;12.00;19.30
6954;DHT22;3516;47.980;8.808;2023-04-06T14:13:47;12.10;18.60
6954;DHT22;3516;47.980;8.808;2023-04-06T14:16:14;12.20;18.60
6954;DHT22;3516;47.980;8.808;2023-04-06T14:18:40;12.20;18.80
6954;DHT22;3516;47.980;8.808;2023-04-06T14:21:08;12.20;17.90
6954;DHT22;3516;47.980;8.808;2023-04-06T14:23:34;12.20;18.00
6954;DHT22;3516;47.980;8.808;2023-04-06T14:26:02;12.10;18.40
6954;DHT22;3516;47.980;8.808;2023-04-06T14:28:30;12.20;18.80
6954;DHT22;3516;47.980;8.808;2023-04-06T14:30:58;12.10;18.70
6954;DHT22;3516;47.980;8.808;2023-04-06T14:33:25;12.10;19.30
6954;DHT22;3516;47.980;8.808;2023-04-06T14:35:52;12.10;19.80
6954;DHT22;3516;47.980;8.808;2023-04-06T14:38:19;12.20;20.00
6954;DHT22;3516;47.980;8.808;2023-04-06T14:40:46;12.30;20.20
6954;DHT22;3516;47.980;8.808;2023-04-06T14:43:12;12.30;20.00
6954;DHT22;3516;47.980;8.808;2023-04-06T14:45:40;12.30;19.80
6954;DHT22;3516;47.980;8.808;2023-04-06T14:48:08;12.40;19.60
6954;DHT22;3516;47.980;8.808;2023-04-06T14:50:37;12.50;20.10
6954;DHT22;3516;47.980;8.808;2023-04-06T14:53:04;12.50;20.30
6954;DHT22;3516;47.980;8.808;2023-04-06T14:55:31;12.50;20.20
6954;DHT22;3516;47.980;8.808;2023-04-06T14:57:58;12.50;20.90
6954;DHT22;3516;47.980;8.808;2023-04-06T15:00:25;12.50;20.90
6954;DHT22;3516;47.980;8.808;2023-04-06T15:02:51;12.50;20.80
6954;DHT22;3516;47.980;8.808;2023-04-06T15:05:19;12.50;20.60
6954;DHT22;3516;47.980;8.808;2023-04-06T15:07:46;12.40;20.30
6954;DHT22;3516;47.980;8.808;2023-04-06T15:10:13;12.40;20.40
6954;DHT22;3516;47.980;8.808;2023-04-06T15:12:40;12.30;21.60
6954;DHT22;3516;47.980;8.808;2023-04-06T15:15:07;12.30;21.40
6954;DHT22;3516;47.980;8.808;2023-04-06T15:17:34;12.30;21.50
6954;DHT22;3516;47.980;8.808;2023-04-06T15:20:01;12.20;20.90
6954;DHT22;3516;47.980;8.808;2023-04-06T15:22:29;12.20;21.10
6954;DHT22;3516;47.980;8.808;2023-04-06T15:24:56;12.30;21.60
6954;DHT22;3516;47.980;8.808;2023-04-06T15:27:23;12.30;21.00
6954;DHT22;3516;47.980;8.808;2023-04-06T15:29:50;12.30;21.20
6954;DHT22;3516;47.980;8.808;2023-04-06T15:32:17;12.30;20.80
6954;DHT22;3516;47.980;8.808;2023-04-06T15:34:43;12.30;20.40
6954;DHT22;3516;47.980;8.808;2023-04-06T15:37:10;12.20;20.50
6954;DHT22;3516;47.980;8.808;2023-04-06T15:39:38;12.20;21.30
6954;DHT22;3516;47.980;8.808;2023-04-06T15:42:05;12.20;20.50
6954;DHT22;3516;47.980;8.808;2023-04-06T15:44:32;12.10;20.50
6954;DHT22;3516;47.980;8.808;2023-04-06T15:46:58;12.10;20.70
6954;DHT22;3516;47.980;8.808;2023-04-06T15:49:25;12.10;20.70
6954;DHT22;3516;47.980;8.808;2023-04-06T15:51:52;12.00;20.60
6954;DHT22;3516;47.980;8.808;2023-04-06T15:54:19;11.90;20.50
6954;DHT22;3516;47.980;8.808;2023-04-06T15:56:48;11.90;20.60
6954;DHT22;3516;47.980;8.808;2023-04-06T15:59:15;11.80;20.50
6954;DHT22;3516;47.980;8.808;2023-04-06T16:01:42;11.70;20.70
6954;DHT22;3516;47.980;8.808;2023-04-06T16:04:09;11.70;20.90
6954;DHT22;3516;47.980;8.808;2023-04-06T16:06:36;11.60;21.10
6954;DHT22;3516;47.980;8.808;2023-04-06T16:09:03;11.60;21.40
6954;DHT22;3516;47.980;8.808;2023-04-06T16:11:30;11.60;21.30
6954;DHT22;3516;47.980;8.808;2023-04-06T16:13:59;11.50;20.70
6954;DHT22;3516;47.980;8.808;2023-04-06T16:16:25;11.40;19.50
6954;DHT22;3516;47.980;8.808;2023-04-06T16:18:52;11.30;18.70
6954;DHT22;3516;47.980;8.808;2023-04-06T16:21:19;11.10;18.30
6954;DHT22;3516;47.980;8.808;2023-04-06T16:23:46;11.10;18.20
6954;DHT22;3516;47.980;8.808;2023-04-06T16:26:14;11.00;18.00
6954;DHT22;3516;47.980;8.808;2023-04-06T16:28:42;10.80;17.90
6954;DHT22;3516;47.980;8.808;2023-04-06T16:31:17;10.80;18.40
6954;DHT22;3516;47.980;8.808;2023-04-06T16:33:45;10.70;17.80
6954;DHT22;3516;47.980;8.808;2023-04-06T16:36:12;10.70;17.90
6954;DHT22;3516;47.980;8.808;2023-04-06T16:38:38;10.50;17.60
6954;DHT22;3516;47.980;8.808;2023-04-06T16:41:05;10.40;17.20
6954;DHT22;3516;47.980;8.808;2023-04-06T16:43:32;10.40;17.70
6954;DHT22;3516;47.980;8.808;2023-04-06T16:45:59;10.30;17.70
6954;DHT22;3516;47.980;8.808;2023-04-06T16:48:27;10.30;18.10
6954;DHT22;3516;47.980;8.808;2023-04-06T16:50:54;10.20;18.10
6954;DHT22;3516;47.980;8.808;2023-04-06T16:53:21;10.10;17.90
6954;DHT22;3516;47.980;8.808;2023-04-06T16:55:47;10.00;17.90
6954;DHT22;3516;47.980;8.808;2023-04-06T16:58:14;9.90;18.60
6954;DHT22;3516;47.980;8.808;2023-04-06T17:00:41;9.90;18.80
6954;DHT22;3516;47.980;8.808;2023-04-06T17:03:07;9.80;18.90
6954;DHT22;3516;47.980;8.808;2023-04-06T17:05:35;9.70;19.10
6954;DHT22;3516;47.980;8.808;2023-04-06T17:08:02;9.70;19.40
6954;DHT22;3516;47.980;8.808;2023-04-06T17:10:29;9.60;19.50
6954;DHT22;3516;47.980;8.808;2023-04-06T17:12:55;9.60;19.90
6954;DHT22;3516;47.980;8.808;2023-04-06T17:15:22;9.60;20.80
6954;DHT22;3516;47.980;8.808;2023-04-06T17:17:50;9.60;21.90
6954;DHT22;3516;47.980;8.808;2023-04-06T17:20:18;9.60;21.10
6954;DHT22;3516;47.980;8.808;2023-04-06T17:22:46;9.60;21.50
6954;DHT22;3516;47.980;8.808;2023-04-06T17:25:14;9.60;21.20
6954;DHT22;3516;47.980;8.808;2023-04-06T17:27:41;9.50;21.00
6954;DHT22;3516;47.980;8.808;2023-04-06T17:30:09;9.40;21.30
6954;DHT22;3516;47.980;8.808;2023-04-06T17:32:36;9.30;21.40
6954;DHT22;3516;47.980;8.808;2023-04-06T17:35:03;9.20;21.70
6954;DHT22;3516;47.980;8.808;2023-04-06T17:37:30;9.10;21.90
6954;DHT22;3516;47.980;8.808;2023-04-06T17:39:58;9.10;22.10
6954;DHT22;3516;47.980;8.808;2023-04-06T17:42:25;9.00;22.40
6954;DHT22;3516;47.980;8.808;2023-04-06T17:44:52;9.00;22.70
6954;DHT22;3516;47.980;8.808;2023-04-06T17:47:18;8.90;22.80
6954;DHT22;3516;47.980;8.808;2023-04-06T17:49:45;8.90;23.10
6954;DHT22;3516;47.980;8.808;2023-04-06T17:52:13;8.80;23.40
6954;DHT22;3516;47.980;8.808;2023-04-06T17:54:40;8.70;23.70
6954;DHT22;3516;47.980;8.808;2023-04-06T17:57:08;8.60;23.90
6954;DHT22;3516;47.980;8.808;2023-04-06T17:59:34;8.50;24.20
6954;DHT22;3516;47.980;8.808;2023-04-06T18:02:01;8.50;24.50
6954;DHT22;3516;47.980;8.808;2023-04-06T18:04:30;8.50;24.70
6954;DHT22;3516;47.980;8.808;2023-04-06T18:06:57;8.40;25.00
6954;DHT22;3516;47.980;8.808;2023-04-06T18:09:23;8.30;25.30
6954;DHT22;3516;47.980;8.808;2023-04-06T18:11:50;8.30;25.20
6954;DHT22;3516;47.980;8.808;2023-04-06T18:14:18;8.20;25.30
6954;DHT22;3516;47.980;8.808;2023-04-06T18:16:45;8.20;25.70
6954;DHT22;3516;47.980;8.808;2023-04-06T18:19:12;8.20;26.40
6954;DHT22;3516;47.980;8.808;2023-04-06T18:21:39;8.10;26.00
6954;DHT22;3516;47.980;8.808;2023-04-06T18:24:06;8.10;26.20
6954;DHT22;3516;47.980;8.808;2023-04-06T18:26:34;8.10;26.40
6954;DHT22;3516;47.980;8.808;2023-04-06T18:29:01;8.00;26.60
6954;DHT22;3516;47.980;8.808;2023-04-06T18:31:29;8.00;26.80
6954;DHT22;3516;47.980;8.808;2023-04-06T18:33:56;8.00;26.90
6954;DHT22;3516;47.980;8.808;2023-04-06T18:36:22;7.90;27.40
6954;DHT22;3516;47.980;8.808;2023-04-06T18:38:49;7.90;27.60
6954;DHT22;3516;47.980;8.808;2023-04-06T18:41:16;7.90;28.00
6954;DHT22;3516;47.980;8.808;2023-04-06T18:43:45;7.90;28.70
6954;DHT22;3516;47.980;8.808;2023-04-06T18:46:12;7.80;28.80
6954;DHT22;3516;47.980;8.808;2023-04-06T18:48:41;7.80;29.10
6954;DHT22;3516;47.980;8.808;2023-04-06T18:51:09;7.80;29.50
6954;DHT22;3516;47.980;8.808;2023-04-06T18:53:36;7.70;29.80
6954;DHT22;3516;47.980;8.808;2023-04-06T18:56:03;7.70;30.60
6954;DHT22;3516;47.980;8.808;2023-04-06T18:58:37;7.70;31.80
6954;DHT22;3516;47.980;8.808;2023-04-06T19:01:06;7.60;32.30
6954;DHT22;3516;47.980;8.808;2023-04-06T19:03:33;7.60;33.20
6954;DHT22;3516;47.980;8.808;2023-04-06T19:06:03;7.60;34.40
6954;DHT22;3516;47.980;8.808;2023-04-06T19:08:30;7.60;35.70
6954;DHT22;3516;47.980;8.808;2023-04-06T19:10:57;7.50;37.50
6954;DHT22;3516;47.980;8.808;2023-04-06T19:13:23;7.50;38.00
6954;DHT22;3516;47.980;8.808;2023-04-06T19:15:51;7.40;39.70
6954;DHT22;3516;47.980;8.808;2023-04-06T19:18:18;7.40;40.10
6954;DHT22;3516;47.980;8.808;2023-04-06T19:20:45;7.40;41.40
6954;DHT22;3516;47.980;8.808;2023-04-06T19:23:13;7.30;41.20
6954;DHT22;3516;47.980;8.808;2023-04-06T19:25:41;7.30;45.70
6954;DHT22;3516;47.980;8.808;2023-04-06T19:28:08;7.20;50.20
6954;DHT22;3516;47.980;8.808;2023-04-06T19:30:35;7.20;56.90
6954;DHT22;3516;47.980;8.808;2023-04-06T19:33:02;7.10;76.10
6954;DHT22;3516;47.980;8.808;2023-04-06T19:35:29;7.00;83.20
6954;DHT22;3516;47.980;8.808;2023-04-06T19:37:55;7.00;91.70
6954;DHT22;3516;47.980;8.808;2023-04-06T19:40:24;6.90;92.50
6954;DHT22;3516;47.980;8.808;2023-04-06T19:42:50;6.90;97.20
6954;DHT22;3516;47.980;8.808;2023-04-06T19:45:17;6.90;99.90
6954;DHT22;3516;47.980;8.808;2023-04-06T19:47:44;6.90;99.90
6954;DHT22;3516;47.980;8.808;2023-04-06T19:50:10;6.90;99.90
6954;DHT22;3516;47.980;8.808;2023-04-06T19:52:37;6.80;99.90
6954;DHT22;3516;47.980;8.808;2023-04-06T19:55:05;6.70;99.90
6954;DHT22;3516;47.980;8.808;2023-04-06T19:57:33;6.70;99.90
6954;DHT22;3516;47.980;8.808;2023-04-06T20:00:00;6.60;99.90
6954;DHT22;3516;47.980;8.808;2023-04-06T20:02:26;6.60;99.90
6954;DHT22;3516;47.980;8.808;2023-04-06T20:04:53;6.50;99.90
6954;DHT22;3516;47.980;8.808;2023-04-06T20:07:20;6.50;99.90
6954;DHT22;3516;47.980;8.808;2023-04-06T20:09:46;6.40;99.90
6954;DHT22;3516;47.980;8.808;2023-04-06T20:12:13;6.40;99.90
6954;DHT22;3516;47.980;8.808;2023-04-06T20:14:41;6.30;99.90
6954;DHT22;3516;47.980;8.808;2023-04-06T20:17:08;6.20;99.90
6954;DHT22;3516;47.980;8.808;2023-04-06T20:19:35;6.20;99.90
6954;DHT22;3516;47.980;8.808;2023-04-06T20:22:01;6.10;99.90
6954;DHT22;3516;47.980;8.808;2023-04-06T20:24:29;6.10;99.90
6954;DHT22;3516;47.980;8.808;2023-04-06T20:26:56;6.10;99.90
6954;DHT22;3516;47.980;8.808;2023-04-06T20:29:22;6.10;99.90
6954;DHT22;3516;47.980;8.808;2023-04-06T20:31:51;6.00;99.90
6954;DHT22;3516;47.980;8.808;2023-04-06T20:34:17;6.00;99.90
6954;DHT22;3516;47.980;8.808;2023-04-06T20:36:44;6.00;99.90
